Hammondsport, New York
Current Conditions -  °F | °C
As of 5:53 AM on Thursday 23 Oct 2014 (Local Time) from KPEO Reporting Station
Overcast Overcast  
Wind Chill: 42°   Ceiling: 1700
Heat Index: 47°   Visibility: 10mi
Dew Point: 40°   Wind: 12mph
Humidity: 77%   Direction: 330°NNW
Pressure: 30.03"   Gusts: 21mph
Location:  42.41°N, 77.22°W
Report Text: KPEO 230953Z AUTO 33010G18KT 10SM BKN017 OVC027 08/04 A3003 RMK AO2 SLP174 T00830044
Loading
Personal Weather Stations






























Interactive Weather Map New forecast layout! Learn more

10-Day Weather Forecast

Advertisements
Track Severe Weather on mobile